createdAt,value
2022-09-18T00:01:53.407Z,7.70
2022-09-18T00:04:22.529Z,7.74
2022-09-18T00:06:52.626Z,7.68
2022-09-18T00:09:22.173Z,7.70
2022-09-18T00:11:52.263Z,7.70
2022-09-18T00:14:22.141Z,7.69
2022-09-18T00:16:51.035Z,7.73
2022-09-18T00:19:19.361Z,7.71
2022-09-18T00:21:48.506Z,7.71
2022-09-18T00:24:20.465Z,7.73
2022-09-18T00:26:50.238Z,7.70
2022-09-18T00:29:18.541Z,7.67
2022-09-18T00:31:47.239Z,7.68
2022-09-18T00:34:16.207Z,7.66
2022-09-18T00:36:45.064Z,7.67
2022-09-18T00:39:13.533Z,7.63
2022-09-18T00:41:44.246Z,7.59
2022-09-18T00:44:40.297Z,7.60
2022-09-18T00:47:17.104Z,7.65
2022-09-18T00:49:47.300Z,7.63
2022-09-18T00:52:15.793Z,7.65
2022-09-18T00:54:45.318Z,7.61
2022-09-18T00:57:17.792Z,7.66
2022-09-18T00:59:48.113Z,7.63
2022-09-18T01:02:16.736Z,7.64
2022-09-18T01:04:45.005Z,7.68
2022-09-18T01:07:19.193Z,7.66
2022-09-18T01:09:51.298Z,7.64
2022-09-18T01:12:24.406Z,7.67
2022-09-18T01:14:56.559Z,7.63
2022-09-18T01:17:30.923Z,7.63
2022-09-18T01:20:30.229Z,7.64
2022-09-18T01:23:09.649Z,7.57
2022-09-18T01:25:40.064Z,7.57
2022-09-18T01:28:28.527Z,7.55
2022-09-18T01:30:57.604Z,7.54
2022-09-18T01:33:30.987Z,7.55
2022-09-18T01:36:01.904Z,7.55
2022-09-18T01:38:31.875Z,7.58
2022-09-18T01:41:02.489Z,7.55
2022-09-18T01:43:37.636Z,7.54
2022-09-18T01:46:10.157Z,7.57
2022-09-18T01:48:40.795Z,7.63
2022-09-18T01:51:11.467Z,7.59
2022-09-18T01:53:42.581Z,7.57
2022-09-18T01:56:12.715Z,7.61
2022-09-18T01:58:42.813Z,7.60
2022-09-18T02:01:18.514Z,7.62
2022-09-18T02:03:49.151Z,7.61
2022-09-18T02:06:23.561Z,7.57
2022-09-18T02:08:53.391Z,7.62
2022-09-18T02:11:24.041Z,7.61
2022-09-18T02:13:58.889Z,7.65
2022-09-18T02:16:41.799Z,7.67
2022-09-18T02:19:12.219Z,7.67
2022-09-18T02:21:42.190Z,7.67
2022-09-18T02:24:11.401Z,7.65
2022-09-18T02:26:40.865Z,7.67
2022-09-18T02:29:13.739Z,7.67
2022-09-18T02:31:42.656Z,7.68
2022-09-18T02:34:11.205Z,7.69
2022-09-18T02:36:49.275Z,7.72
2022-09-18T02:39:28.904Z,7.73
2022-09-18T02:42:04.340Z,7.73
2022-09-18T02:44:38.794Z,7.73
2022-09-18T02:47:13.763Z,7.74
2022-09-18T02:49:46.458Z,7.74
2022-09-18T02:52:17.578Z,7.76
2022-09-18T02:54:49.305Z,7.76
2022-09-18T02:57:20.073Z,7.79
2022-09-18T02:59:52.256Z,7.75
2022-09-18T03:02:21.191Z,7.77
2022-09-18T03:04:50.143Z,7.79
2022-09-18T03:07:31.972Z,7.76
2022-09-18T03:10:02.182Z,7.76
2022-09-18T03:12:32.326Z,7.77
2022-09-18T03:15:05.489Z,7.77
2022-09-18T03:17:39.787Z,7.76
2022-09-18T03:20:15.108Z,7.76
2022-09-18T03:22:44.699Z,7.80
2022-09-18T03:25:15.878Z,7.81
2022-09-18T03:27:46.207Z,7.78
2022-09-18T03:30:28.206Z,7.74
2022-09-18T03:33:02.756Z,7.68
2022-09-18T03:35:35.928Z,7.60
2022-09-18T03:38:06.563Z,7.55
2022-09-18T03:40:35.932Z,7.47
2022-09-18T03:43:07.429Z,7.43
2022-09-18T03:45:37.561Z,7.36
2022-09-18T03:48:07.272Z,7.35
2022-09-18T03:50:37.894Z,7.26
2022-09-18T03:53:10.424Z,7.27
2022-09-18T03:56:01.579Z,7.25
2022-09-18T03:58:59.247Z,7.27
2022-09-18T04:01:49.549Z,7.32
2022-09-18T04:04:41.696Z,7.36
2022-09-18T04:07:30.536Z,7.33
2022-09-18T04:10:22.859Z,7.33
2022-09-18T04:12:52.047Z,7.31
2022-09-18T04:15:28.368Z,7.36
2022-09-18T04:17:59.891Z,7.36
2022-09-18T04:20:28.836Z,7.33
2022-09-18T04:22:59.685Z,7.31
2022-09-18T04:25:31.724Z,7.28
2022-09-18T04:28:04.644Z,7.26
2022-09-18T04:30:40.288Z,7.26
2022-09-18T04:33:11.495Z,7.19
2022-09-18T04:35:42.073Z,7.21
2022-09-18T04:38:12.306Z,7.23
2022-09-18T04:40:41.615Z,7.21
2022-09-18T04:43:12.320Z,7.18
2022-09-18T04:45:43.056Z,7.19
2022-09-18T04:48:14.343Z,7.23
2022-09-18T04:50:43.541Z,7.25
2022-09-18T04:53:21.124Z,7.27
2022-09-18T04:55:51.106Z,7.33
2022-09-18T04:58:22.785Z,7.35
2022-09-18T05:00:58.900Z,7.33
2022-09-18T05:03:37.201Z,7.31
2022-09-18T05:06:08.282Z,7.31
2022-09-18T05:08:40.620Z,7.32
2022-09-18T05:11:11.390Z,7.31
2022-09-18T05:13:40.935Z,7.30
2022-09-18T05:16:15.944Z,7.36
2022-09-18T05:18:53.161Z,7.36
2022-09-18T05:21:26.054Z,7.40
2022-09-18T05:23:55.272Z,7.43
2022-09-18T05:26:25.938Z,7.48
2022-09-18T05:29:01.246Z,7.50
2022-09-18T05:31:29.770Z,7.51
2022-09-18T05:34:04.754Z,7.52
2022-09-18T05:36:37.040Z,7.56
2022-09-18T05:39:06.652Z,7.59
2022-09-18T05:41:39.474Z,7.61
2022-09-18T05:44:08.815Z,7.65
2022-09-18T05:46:38.370Z,7.68
2022-09-18T05:49:09.973Z,7.73
2022-09-18T05:51:39.166Z,7.75
2022-09-18T05:54:08.017Z,7.75
2022-09-18T05:56:44.438Z,7.81
2022-09-18T05:59:13.745Z,7.85
2022-09-18T06:01:47.286Z,7.87
2022-09-18T06:04:50.398Z,7.87
2022-09-18T06:07:19.455Z,7.87
2022-09-18T06:09:50.511Z,7.89
2022-09-18T06:12:19.456Z,7.90
2022-09-18T06:14:48.714Z,7.93
2022-09-18T06:17:18.402Z,7.99
2022-09-18T06:19:52.244Z,8.03
2022-09-18T06:22:21.320Z,8.02
2022-09-18T06:24:50.790Z,8.09
2022-09-18T06:27:27.210Z,8.08
2022-09-18T06:29:56.054Z,8.00
2022-09-18T06:32:33.226Z,8.02
2022-09-18T06:35:04.867Z,7.97
2022-09-18T06:37:35.376Z,7.98
2022-09-18T06:40:33.996Z,8.09
2022-09-18T06:43:19.873Z,8.13
2022-09-18T06:45:52.729Z,8.22
2022-09-18T06:48:24.388Z,8.32
2022-09-18T06:50:59.700Z,8.43
2022-09-18T06:53:32.825Z,8.55
2022-09-18T06:56:04.582Z,8.67
2022-09-18T06:58:36.550Z,8.72
2022-09-18T07:01:07.739Z,8.79
2022-09-18T07:03:43.651Z,8.92
2022-09-18T07:06:23.493Z,8.96
2022-09-18T07:08:58.238Z,8.99
2022-09-18T07:11:44.024Z,8.99
2022-09-18T07:14:14.143Z,9.07
2022-09-18T07:16:52.208Z,9.16
2022-09-18T07:19:41.199Z,9.28
2022-09-18T07:22:16.577Z,9.33
2022-09-18T07:24:48.499Z,9.32
2022-09-18T07:27:17.954Z,9.51
2022-09-18T07:29:46.728Z,9.68
2022-09-18T07:32:17.067Z,9.78
2022-09-18T07:34:47.147Z,9.85
2022-09-18T07:37:25.019Z,9.82
2022-09-18T07:40:08.335Z,9.91
2022-09-18T07:43:00.173Z,10.19
2022-09-18T07:45:30.188Z,10.23
2022-09-18T07:48:03.134Z,10.27
2022-09-18T07:50:35.174Z,10.28
2022-09-18T07:53:05.613Z,10.32
2022-09-18T07:55:42.599Z,10.44
2022-09-18T07:58:11.181Z,10.63
2022-09-18T08:00:55.270Z,10.66
2022-09-18T08:03:26.670Z,10.73
2022-09-18T08:06:22.225Z,10.76
2022-09-18T08:09:06.333Z,10.75
2022-09-18T08:11:55.982Z,10.67
2022-09-18T08:14:47.459Z,10.61
2022-09-18T08:17:29.050Z,10.75
2022-09-18T08:20:09.226Z,10.92
2022-09-18T08:22:55.400Z,11.13
2022-09-18T08:25:30.380Z,11.33
2022-09-18T08:28:01.750Z,11.39
2022-09-18T08:30:39.425Z,11.31
2022-09-18T08:33:11.984Z,11.21
2022-09-18T08:35:41.774Z,11.10
2022-09-18T08:38:39.082Z,11.09
2022-09-18T08:41:36.026Z,11.00
2022-09-18T08:44:06.283Z,11.06
2022-09-18T08:46:39.335Z,11.20
2022-09-18T08:49:22.832Z,11.21
2022-09-18T08:51:55.964Z,11.18
2022-09-18T08:54:29.329Z,11.22
2022-09-18T08:57:24.371Z,11.15
2022-09-18T09:00:10.365Z,11.05
2022-09-18T09:02:42.211Z,11.07
2022-09-18T09:05:13.030Z,11.12
2022-09-18T09:08:15.188Z,11.23
2022-09-18T09:10:47.337Z,11.18
2022-09-18T09:13:31.542Z,11.29
2022-09-18T09:16:01.605Z,11.85
2022-09-18T09:18:32.864Z,11.98
2022-09-18T09:21:07.616Z,11.85
2022-09-18T09:23:45.296Z,12.18
2022-09-18T09:26:25.482Z,11.98
2022-09-18T09:29:01.175Z,11.77
2022-09-18T09:31:50.637Z,11.52
2022-09-18T09:34:40.954Z,11.28
2022-09-18T09:37:33.981Z,11.12
2022-09-18T09:40:06.371Z,11.06
2022-09-18T09:42:37.670Z,10.98
2022-09-18T09:45:12.218Z,10.96
2022-09-18T09:47:44.274Z,11.00
2022-09-18T09:50:22.358Z,11.00
2022-09-18T09:52:51.106Z,11.00
2022-09-18T09:55:25.284Z,10.83
2022-09-18T09:58:04.866Z,10.79
2022-09-18T10:00:39.662Z,10.90
2022-09-18T10:03:42.454Z,10.90
2022-09-18T10:06:22.512Z,10.94
2022-09-18T10:08:52.622Z,11.01
2022-09-18T10:11:22.363Z,11.07
2022-09-18T10:13:58.470Z,11.20
2022-09-18T10:16:35.825Z,11.29
2022-09-18T10:19:05.921Z,11.23
2022-09-18T10:21:37.381Z,11.32
2022-09-18T10:24:15.024Z,11.40
2022-09-18T10:26:45.806Z,11.39
2022-09-18T10:29:16.675Z,11.36
2022-09-18T10:31:56.079Z,11.32
2022-09-18T10:34:40.093Z,11.13
2022-09-18T10:37:14.873Z,10.98
2022-09-18T10:39:50.304Z,10.98
2022-09-18T10:42:20.232Z,10.89
2022-09-18T10:44:55.796Z,10.70
2022-09-18T10:47:33.667Z,10.57
2022-09-18T10:50:06.469Z,10.45
2022-09-18T10:52:37.627Z,10.49
2022-09-18T10:55:29.678Z,10.70
2022-09-18T10:58:08.422Z,11.00
2022-09-18T11:00:42.996Z,11.20
2022-09-18T11:03:24.678Z,11.19
2022-09-18T11:05:56.323Z,11.38
2022-09-18T11:08:27.312Z,11.48
2022-09-18T11:11:03.148Z,11.51
2022-09-18T11:13:34.250Z,11.44
2022-09-18T11:16:05.557Z,11.39
2022-09-18T11:18:38.599Z,11.42
2022-09-18T11:21:08.674Z,11.38
2022-09-18T11:23:37.947Z,11.29
2022-09-18T11:26:22.113Z,11.29
2022-09-18T11:29:02.901Z,11.29
2022-09-18T11:31:43.674Z,11.35
2022-09-18T11:34:21.537Z,11.45
2022-09-18T11:36:51.450Z,11.51
2022-09-18T11:39:24.789Z,11.51
2022-09-18T11:41:54.762Z,11.52
2022-09-18T11:44:28.595Z,11.42
2022-09-18T11:47:28.010Z,11.48
2022-09-18T11:50:05.592Z,11.53
2022-09-18T11:52:37.030Z,11.58
2022-09-18T11:55:14.086Z,11.59
2022-09-18T11:57:47.349Z,11.53
2022-09-18T12:00:18.990Z,11.51
2022-09-18T12:02:59.841Z,11.49
2022-09-18T12:05:36.043Z,11.45
2022-09-18T12:08:07.494Z,11.45
2022-09-18T12:10:57.074Z,11.38
2022-09-18T12:13:41.656Z,11.29
2022-09-18T12:16:17.568Z,11.24
2022-09-18T12:18:52.278Z,11.22
2022-09-18T12:21:26.481Z,11.28
2022-09-18T12:24:02.456Z,11.41
2022-09-18T12:26:41.356Z,11.48
2022-09-18T12:29:18.461Z,11.52
2022-09-18T12:31:53.953Z,11.57
2022-09-18T12:34:26.280Z,11.64
2022-09-18T12:37:17.739Z,11.64
2022-09-18T12:39:57.783Z,11.57
2022-09-18T12:42:31.738Z,11.52
2022-09-18T12:45:20.906Z,11.39
2022-09-18T12:48:00.781Z,11.40
2022-09-18T12:50:41.478Z,11.34
2022-09-18T12:53:20.730Z,11.30
2022-09-18T12:56:01.392Z,11.27
2022-09-18T12:59:02.390Z,11.14
2022-09-18T13:01:35.041Z,11.01
2022-09-18T13:04:09.613Z,10.80
2022-09-18T13:06:49.435Z,10.67
2022-09-18T13:09:28.471Z,10.57
2022-09-18T13:12:02.844Z,10.50
2022-09-18T13:14:34.154Z,10.46
2022-09-18T13:17:11.111Z,10.44
2022-09-18T13:19:40.905Z,10.37
2022-09-18T13:22:14.416Z,10.30
2022-09-18T13:24:46.440Z,10.28
2022-09-18T13:27:16.052Z,10.22
2022-09-18T13:30:14.832Z,10.19
2022-09-18T13:32:43.731Z,10.12
2022-09-18T13:35:26.270Z,10.11
2022-09-18T13:38:13.440Z,10.11
2022-09-18T13:40:44.630Z,10.13
2022-09-18T13:43:39.663Z,10.13
2022-09-18T13:46:09.130Z,10.13
2022-09-18T13:48:43.817Z,10.13
2022-09-18T13:51:18.943Z,10.20
2022-09-18T13:53:52.643Z,10.24
2022-09-18T13:56:23.268Z,10.23
2022-09-18T13:58:53.096Z,10.23
2022-09-18T14:01:51.440Z,10.16
2022-09-18T14:05:05.522Z,10.14
2022-09-18T14:07:59.323Z,10.08
2022-09-18T14:10:32.497Z,9.99
2022-09-18T14:13:33.286Z,9.97
2022-09-18T14:16:13.198Z,9.95
2022-09-18T14:18:58.585Z,9.95
2022-09-18T14:21:31.969Z,9.94
2022-09-18T14:24:36.694Z,9.95
2022-09-18T14:27:29.845Z,9.97
2022-09-18T14:30:01.714Z,9.94
2022-09-18T14:32:30.010Z,9.93
2022-09-18T14:35:38.686Z,9.97
2022-09-18T14:38:25.654Z,9.95
2022-09-18T14:40:56.931Z,9.79
2022-09-18T14:43:25.507Z,9.72
2022-09-18T14:45:55.907Z,9.74
2022-09-18T14:48:29.200Z,9.73
2022-09-18T14:51:05.611Z,9.68
2022-09-18T14:53:42.813Z,9.59
2022-09-18T14:56:14.849Z,9.60
2022-09-18T14:58:44.415Z,9.58
2022-09-18T15:01:16.431Z,9.53
2022-09-18T15:03:46.084Z,9.49
2022-09-18T15:06:18.120Z,9.51
2022-09-18T15:08:47.442Z,9.48
2022-09-18T15:11:16.612Z,9.46
2022-09-18T15:13:45.743Z,9.47
2022-09-18T15:16:20.576Z,9.39
2022-09-18T15:18:49.403Z,9.37
2022-09-18T15:21:32.840Z,9.32
2022-09-18T15:24:03.443Z,9.32
2022-09-18T15:26:32.906Z,9.27
2022-09-18T15:29:01.474Z,9.27
2022-09-18T15:31:31.930Z,9.31
2022-09-18T15:34:01.547Z,9.19
2022-09-18T15:36:32.226Z,9.21
2022-09-18T15:39:01.361Z,9.21
2022-09-18T15:41:37.937Z,9.24
2022-09-18T15:44:06.951Z,9.14
2022-09-18T15:46:37.462Z,9.12
2022-09-18T15:49:29.513Z,9.07
2022-09-18T15:51:58.389Z,8.98
2022-09-18T15:54:27.952Z,8.92
2022-09-18T15:56:57.509Z,8.85
2022-09-18T15:59:30.042Z,8.82
2022-09-18T16:02:00.710Z,8.73
2022-09-18T16:04:32.500Z,8.67
2022-09-18T16:07:02.798Z,8.63
2022-09-18T16:09:37.464Z,8.56
2022-09-18T16:12:27.674Z,8.60
2022-09-18T16:15:20.786Z,8.58
2022-09-18T16:18:16.078Z,8.59
2022-09-18T16:20:44.884Z,8.60
2022-09-18T16:23:20.240Z,8.57
2022-09-18T16:26:02.621Z,8.56
2022-09-18T16:28:31.975Z,8.56
2022-09-18T16:31:00.443Z,8.56
2022-09-18T16:33:31.303Z,8.44
2022-09-18T16:36:02.691Z,8.44
2022-09-18T16:38:33.313Z,8.46
2022-09-18T16:41:03.711Z,8.42
2022-09-18T16:43:32.094Z,8.39
2022-09-18T16:46:00.369Z,8.32
2022-09-18T16:48:30.316Z,8.28
2022-09-18T16:50:58.908Z,8.26
2022-09-18T16:53:27.677Z,8.28
2022-09-18T16:55:56.793Z,8.22
2022-09-18T16:58:26.848Z,8.11
2022-09-18T17:00:55.513Z,8.14
2022-09-18T17:03:24.235Z,8.12
2022-09-18T17:05:54.400Z,8.12
2022-09-18T17:08:24.716Z,8.10
2022-09-18T17:10:53.311Z,8.12
2022-09-18T17:13:22.417Z,8.15
2022-09-18T17:16:05.080Z,8.08
2022-09-18T17:21:29.399Z,8.03
2022-09-18T17:23:58.345Z,7.98
2022-09-18T17:26:29.347Z,8.01
2022-09-18T17:28:58.703Z,8.00
2022-09-18T17:31:28.468Z,7.96
2022-09-18T17:33:58.761Z,7.96
2022-09-18T17:36:31.321Z,7.93
2022-09-18T17:39:02.474Z,7.91
2022-09-18T17:41:32.345Z,7.93
2022-09-18T17:44:02.360Z,7.89
2022-09-18T17:46:35.259Z,7.91
2022-09-18T17:49:06.000Z,7.94
2022-09-18T17:51:35.899Z,7.93
2022-09-18T17:54:05.639Z,7.92
2022-09-18T17:56:34.377Z,7.81
2022-09-18T17:59:05.575Z,7.77
2022-09-18T18:01:36.351Z,7.85
2022-09-18T18:04:05.371Z,7.86
2022-09-18T18:06:35.853Z,7.78
2022-09-18T18:09:06.309Z,7.77
2022-09-18T18:11:35.178Z,7.77
2022-09-18T18:14:05.564Z,7.71
2022-09-18T18:16:34.435Z,7.67
2022-09-18T18:19:03.941Z,7.65
2022-09-18T18:21:33.060Z,7.73
2022-09-18T18:24:04.880Z,7.74
2022-09-18T18:26:33.621Z,7.68
2022-09-18T18:29:04.708Z,7.65
2022-09-18T18:31:33.911Z,7.66
2022-09-18T18:34:04.594Z,7.66
2022-09-18T18:36:35.186Z,7.63
2022-09-18T18:39:12.289Z,7.64
2022-09-18T18:41:44.976Z,7.64
2022-09-18T18:44:14.712Z,7.65
2022-09-18T18:46:43.423Z,7.66
2022-09-18T18:49:13.163Z,7.60
2022-09-18T18:51:43.777Z,7.58
2022-09-18T18:54:14.624Z,7.55
2022-09-18T18:56:46.375Z,7.59
2022-09-18T18:59:15.323Z,7.59
2022-09-18T19:01:43.974Z,7.60
2022-09-18T19:04:13.506Z,7.57
2022-09-18T19:06:43.689Z,7.63
2022-09-18T19:09:19.802Z,7.64
2022-09-18T19:11:49.536Z,7.65
2022-09-18T19:14:19.056Z,7.65
2022-09-18T19:16:47.583Z,7.65
2022-09-18T19:19:17.557Z,7.63
2022-09-18T19:21:47.449Z,7.64
2022-09-18T19:24:18.721Z,7.61
2022-09-18T19:26:47.258Z,7.64
2022-09-18T19:29:19.190Z,7.64
2022-09-18T19:31:48.482Z,7.61
2022-09-18T19:34:18.380Z,7.60
2022-09-18T19:36:49.096Z,7.63
2022-09-18T19:39:21.569Z,7.62
2022-09-18T19:41:52.668Z,7.64
2022-09-18T19:44:24.159Z,7.69
2022-09-18T19:46:52.509Z,7.67
2022-09-18T19:49:22.011Z,7.62
2022-09-18T19:51:50.937Z,7.64
2022-09-18T19:54:20.723Z,7.63
2022-09-18T19:56:50.111Z,7.67
2022-09-18T19:59:19.707Z,7.67
2022-09-18T20:01:49.211Z,7.71
2022-09-18T20:04:19.275Z,7.70
2022-09-18T20:06:47.581Z,7.70
2022-09-18T20:09:16.976Z,7.73
2022-09-18T20:11:48.356Z,7.74
2022-09-18T20:14:18.409Z,7.73
2022-09-18T20:16:47.554Z,7.73
2022-09-18T20:19:16.776Z,7.72
2022-09-18T20:21:45.772Z,7.71
2022-09-18T20:24:17.996Z,7.72
2022-09-18T20:26:48.086Z,7.72
2022-09-18T20:29:20.711Z,7.76
2022-09-18T20:31:50.262Z,7.74
2022-09-18T20:34:22.599Z,7.78
2022-09-18T20:36:52.174Z,7.76
2022-09-18T20:39:21.100Z,7.70
2022-09-18T20:41:52.045Z,7.69
2022-09-18T20:44:22.023Z,7.70
2022-09-18T20:46:56.890Z,7.68
2022-09-18T20:49:26.172Z,7.67
2022-09-18T20:51:55.288Z,7.64
2022-09-18T20:54:24.297Z,7.56
2022-09-18T20:56:54.440Z,7.42
2022-09-18T20:59:23.487Z,7.41
2022-09-18T21:01:56.550Z,7.49
2022-09-18T21:04:26.929Z,7.51
2022-09-18T21:07:00.148Z,7.48
2022-09-18T21:09:31.149Z,7.40
2022-09-18T21:12:02.641Z,7.41
2022-09-18T21:14:34.799Z,7.42
2022-09-18T21:17:09.726Z,7.44
2022-09-18T21:19:40.067Z,7.42
2022-09-18T21:22:08.904Z,7.43
2022-09-18T21:24:38.683Z,7.47
2022-09-18T21:27:11.502Z,7.45
2022-09-18T21:29:42.451Z,7.39
2022-09-18T21:32:12.354Z,7.40
2022-09-18T21:34:42.536Z,7.35
2022-09-18T21:37:13.171Z,7.33
2022-09-18T21:39:42.702Z,7.24
2022-09-18T21:42:16.473Z,7.25
2022-09-18T21:44:48.866Z,7.13
2022-09-18T21:47:17.517Z,7.14
2022-09-18T21:49:48.507Z,7.12
2022-09-18T21:52:20.836Z,7.10
2022-09-18T21:54:49.783Z,7.08
2022-09-18T21:57:22.884Z,7.08
2022-09-18T21:59:51.244Z,7.13
2022-09-18T22:02:22.232Z,7.12
2022-09-18T22:04:55.162Z,7.03
2022-09-18T22:07:24.555Z,7.01
2022-09-18T22:09:55.711Z,7.00
2022-09-18T22:12:29.625Z,7.05
2022-09-18T22:15:02.024Z,7.05
2022-09-18T22:17:32.275Z,7.04
2022-09-18T22:20:01.640Z,7.07
2022-09-18T22:22:30.736Z,6.99
2022-09-18T22:24:59.722Z,6.90
2022-09-18T22:27:30.263Z,6.91
2022-09-18T22:29:58.622Z,6.98
2022-09-18T22:32:27.123Z,6.98
2022-09-18T22:34:56.059Z,7.01
2022-09-18T22:37:24.410Z,7.00
2022-09-18T22:39:53.177Z,6.90
2022-09-18T22:42:22.358Z,6.88
2022-09-18T22:44:52.081Z,6.85
2022-09-18T22:47:21.457Z,6.89
2022-09-18T22:49:51.164Z,6.87
2022-09-18T22:52:20.075Z,6.87
2022-09-18T22:54:48.998Z,6.85
2022-09-18T22:57:17.708Z,6.88
2022-09-18T22:59:46.924Z,6.85
2022-09-18T23:02:17.128Z,6.82
2022-09-18T23:04:47.376Z,6.80
2022-09-18T23:07:15.715Z,6.80
2022-09-18T23:09:44.072Z,6.82
2022-09-18T23:12:12.592Z,6.79
2022-09-18T23:14:42.770Z,6.84
2022-09-18T23:17:13.449Z,6.86
2022-09-18T23:19:44.776Z,6.86
2022-09-18T23:22:15.025Z,6.88
2022-09-18T23:24:43.822Z,6.90
2022-09-18T23:27:16.761Z,6.87
2022-09-18T23:29:48.459Z,6.85
2022-09-18T23:32:17.156Z,6.84
2022-09-18T23:34:47.236Z,6.81
2022-09-18T23:37:17.460Z,6.81
2022-09-18T23:39:47.373Z,6.85
2022-09-18T23:42:18.624Z,6.85
2022-09-18T23:44:48.386Z,6.81
2022-09-18T23:47:18.654Z,6.83
2022-09-18T23:49:49.137Z,6.88
2022-09-18T23:52:17.699Z,6.88
2022-09-18T23:54:46.534Z,6.91
2022-09-18T23:57:15.059Z,6.83
2022-09-18T23:59:44.317Z,6.87
